createdAt,value
2022-11-23T07:58:39.004Z,11.70
2022-11-23T08:03:28.778Z,10.80
2022-11-23T08:08:13.644Z,10.90
2022-11-23T08:13:00.097Z,7.80
2022-11-23T08:17:49.905Z,7.40
2022-11-23T08:22:35.347Z,7.40
2022-11-23T08:27:23.206Z,8.50
2022-11-23T08:32:13.930Z,7.70
2022-11-23T08:37:02.300Z,9.60
2022-11-23T08:41:49.449Z,9.20
2022-11-23T08:46:35.647Z,9.77
2022-11-23T08:51:23.951Z,7.47
2022-11-23T08:56:13.288Z,8.77
2022-11-23T09:00:59.326Z,7.40
2022-11-23T09:05:49.144Z,8.17
2022-11-23T09:10:38.727Z,7.97
2022-11-23T09:15:25.527Z,7.73
2022-11-23T09:20:15.016Z,7.27
2022-11-23T09:25:16.906Z,6.30
2022-11-23T09:30:04.372Z,5.50
2022-11-23T09:40:09.130Z,7.00
2022-11-23T09:45:31.360Z,6.90
2022-11-23T09:50:39.510Z,7.40
2022-11-23T09:55:38.803Z,8.33
2022-11-23T10:00:31.912Z,9.50
2022-11-23T10:05:32.835Z,10.70
2022-11-23T10:10:40.019Z,10.80
2022-11-23T10:15:29.520Z,12.73
2022-11-23T10:21:05.004Z,12.90
2022-11-23T10:26:03.058Z,11.17
2022-11-23T10:31:27.317Z,11.57
2022-11-23T10:36:57.918Z,12.03
2022-11-23T10:42:18.827Z,11.33
2022-11-23T10:47:46.106Z,10.83
2022-11-23T11:00:00.131Z,10.60
2022-11-23T11:05:16.314Z,10.43
2022-11-23T11:16:46.528Z,10.90
2022-11-23T11:21:34.962Z,11.20
2022-11-23T11:26:24.723Z,11.20
2022-11-23T11:31:57.859Z,12.33
2022-11-23T11:37:04.842Z,12.37
2022-11-23T11:41:59.805Z,12.20
2022-11-23T11:47:23.589Z,12.27
2022-11-23T12:04:33.150Z,11.83
2022-11-23T12:15:51.313Z,11.90
2022-11-23T12:20:47.876Z,11.23
2022-11-23T12:25:51.186Z,12.97
2022-11-23T12:37:37.643Z,11.17
2022-11-23T12:49:45.285Z,10.43
2022-11-23T13:17:13.748Z,11.40
2022-11-23T13:22:55.771Z,14.43
2022-11-23T13:33:47.374Z,18.70
2022-11-23T13:39:26.286Z,28.07
2022-11-23T13:45:34.781Z,13.93
2022-11-23T13:50:25.826Z,13.87
2022-11-23T13:56:00.257Z,14.83
2022-11-23T14:01:14.250Z,14.93
2022-11-23T14:13:20.723Z,15.80
2022-11-23T14:19:25.031Z,14.40
2022-11-23T14:25:21.114Z,14.87
2022-11-23T14:31:29.053Z,15.90
2022-11-23T14:48:29.930Z,18.57
2022-11-23T14:53:53.510Z,18.10
2022-11-23T14:58:56.729Z,16.17
2022-11-23T15:04:00.696Z,15.80
2022-11-23T15:09:02.109Z,18.70
2022-11-23T15:14:36.855Z,19.53
2022-11-23T15:20:56.608Z,18.60
2022-11-23T15:38:25.133Z,17.43
2022-11-23T16:03:53.782Z,24.33
2022-11-23T16:08:47.382Z,20.07
2022-11-23T16:13:46.921Z,21.00
2022-11-23T16:18:38.132Z,19.07
2022-11-23T16:23:26.277Z,17.17
2022-11-23T16:28:33.378Z,17.37
2022-11-23T16:34:26.156Z,16.43
2022-11-23T16:39:42.430Z,28.17
2022-11-23T16:44:37.386Z,21.70
2022-11-23T16:49:35.281Z,22.13
2022-11-23T16:54:37.192Z,17.83
2022-11-23T16:59:26.198Z,16.83
2022-11-23T17:04:12.020Z,17.17
2022-11-23T17:09:07.667Z,21.87
2022-11-23T17:14:26.656Z,18.07
2022-11-23T17:19:41.549Z,18.10
2022-11-23T17:24:32.481Z,20.33
2022-11-23T17:30:04.394Z,19.40
2022-11-23T17:35:09.204Z,18.23
2022-11-23T17:39:56.468Z,22.47
2022-11-23T17:44:46.855Z,21.10
2022-11-23T17:49:33.237Z,20.97
2022-11-23T17:59:42.335Z,12.90
2022-11-23T18:04:28.342Z,13.40
2022-11-23T18:09:16.461Z,12.27
2022-11-23T18:14:05.081Z,11.73
2022-11-23T18:19:29.657Z,12.13
2022-11-23T18:24:34.114Z,14.30
2022-11-23T18:29:52.013Z,17.73
2022-11-23T18:35:14.017Z,16.33
2022-11-23T18:40:57.947Z,11.90
2022-11-23T19:02:05.983Z,9.50
2022-11-23T19:11:58.174Z,9.87
2022-11-23T19:16:44.404Z,8.43
2022-11-23T19:21:46.749Z,9.80
2022-11-23T19:26:57.054Z,9.03
2022-11-23T19:31:41.140Z,11.13
2022-11-23T19:36:30.425Z,11.87
2022-11-23T19:41:17.040Z,11.70
2022-11-23T19:46:06.261Z,11.20
2022-11-23T19:51:07.833Z,11.03
2022-11-23T19:56:01.899Z,12.07
2022-11-23T20:01:05.352Z,11.60
2022-11-23T20:06:02.186Z,12.00
2022-11-23T20:10:54.942Z,10.07
2022-11-23T20:15:38.775Z,10.40
2022-11-23T20:20:43.287Z,8.10
2022-11-23T20:26:05.355Z,8.03
2022-11-23T20:30:53.995Z,7.50
2022-11-23T20:36:13.099Z,7.50
2022-11-23T20:47:07.843Z,7.20
2022-11-23T20:52:29.804Z,6.73
2022-11-23T20:57:17.495Z,6.13
2022-11-23T21:02:04.831Z,7.43
2022-11-23T21:07:09.114Z,7.40
2022-11-23T21:12:24.725Z,7.47
2022-11-23T21:17:44.711Z,7.57
2022-11-23T21:22:38.753Z,7.50
2022-11-23T21:27:35.812Z,7.77
2022-11-23T21:32:33.491Z,7.07
2022-11-23T21:37:17.394Z,6.77
2022-11-23T21:42:07.172Z,6.80
2022-11-23T21:46:56.449Z,7.10
2022-11-23T21:51:42.772Z,6.47
2022-11-23T21:56:33.074Z,6.03
2022-11-23T22:01:18.449Z,5.70
2022-11-23T22:06:08.123Z,5.47
2022-11-23T22:10:52.169Z,5.27
2022-11-23T22:15:39.252Z,6.00
2022-11-23T22:20:27.621Z,4.80
2022-11-23T22:25:17.037Z,4.57
2022-11-23T22:30:21.805Z,5.37
2022-11-23T22:35:09.945Z,4.63
2022-11-23T22:39:56.884Z,5.27
2022-11-23T22:44:45.051Z,4.63
2022-11-23T22:49:31.776Z,4.83
2022-11-23T22:54:19.263Z,5.67
2022-11-23T22:59:10.386Z,4.23
2022-11-23T23:03:58.583Z,4.30
2022-11-23T23:08:44.285Z,4.27
2022-11-23T23:13:33.371Z,4.20
2022-11-23T23:18:20.763Z,4.77
2022-11-23T23:23:09.698Z,4.30
2022-11-23T23:27:55.164Z,4.80
2022-11-23T23:32:48.228Z,4.80
2022-11-23T23:37:32.293Z,4.87
2022-11-23T23:42:21.708Z,4.57
2022-11-23T23:47:10.704Z,4.50
2022-11-23T23:51:55.139Z,4.50
2022-11-23T23:57:03.905Z,4.63
